Terminal Aerodrome Forecast
Issued by NWS

Home | Current Version | Previous Version | Text Only | Print | Product List | Glossary On
Versions: 1 2 3 4 5 6 7 8 9 10 11 12 13 14 15 16 17 18 19 20 21 22
000
FTPA31 PHFO 302300
TAFJRF
TAF
PHJR 302330Z 3100/3124 25009KT P6SM VCSH FEW030 BKN050
     FM310400 VRB05KT P6SM SCT050
     FM312000 16009KT P6SM FEW030 BKN050=

USA.gov is the U.S. government's official web portal to all federal, state and local government web resources and services.